createdAt,value
2022-08-28T00:00:40.431Z,12.19
2022-08-28T00:03:10.941Z,12.30
2022-08-28T00:05:38.734Z,12.33
2022-08-28T00:08:06.745Z,12.23
2022-08-28T00:10:36.372Z,12.19
2022-08-28T00:13:03.638Z,12.24
2022-08-28T00:15:34.581Z,12.18
2022-08-28T00:18:06.353Z,12.24
2022-08-28T00:20:34.900Z,12.18
2022-08-28T00:23:04.824Z,12.25
2022-08-28T00:25:34.667Z,12.16
2022-08-28T00:28:10.567Z,12.11
2022-08-28T00:30:48.214Z,12.05
2022-08-28T00:33:20.334Z,12.04
2022-08-28T00:35:48.478Z,11.86
2022-08-28T00:38:17.224Z,12.07
2022-08-28T00:40:51.344Z,12.11
2022-08-28T00:43:39.053Z,11.96
2022-08-28T00:46:10.215Z,12.00
2022-08-28T00:48:44.272Z,11.89
2022-08-28T00:51:14.742Z,12.06
2022-08-28T00:53:43.359Z,12.08
2022-08-28T00:56:14.907Z,11.99
2022-08-28T00:58:46.501Z,12.06
2022-08-28T01:01:17.550Z,11.91
2022-08-28T01:03:47.979Z,11.85
2022-08-28T01:06:16.678Z,11.69
2022-08-28T01:08:50.331Z,11.65
2022-08-28T01:11:19.631Z,11.60
2022-08-28T01:13:47.914Z,11.68
2022-08-28T01:16:17.321Z,11.77
2022-08-28T01:18:47.179Z,11.61
2022-08-28T01:21:21.902Z,11.60
2022-08-28T01:23:59.500Z,11.58
2022-08-28T01:26:28.260Z,11.71
2022-08-28T01:28:57.378Z,11.64
2022-08-28T01:31:26.684Z,11.59
2022-08-28T01:34:00.278Z,11.73
2022-08-28T01:36:30.068Z,11.78
2022-08-28T01:39:06.800Z,11.61
2022-08-28T01:41:34.120Z,11.45
2022-08-28T01:44:01.596Z,11.52
2022-08-28T01:46:31.293Z,11.56
2022-08-28T01:48:58.901Z,11.55
2022-08-28T01:51:29.024Z,11.59
2022-08-28T01:54:06.489Z,11.54
2022-08-28T01:56:37.859Z,11.52
2022-08-28T01:59:07.842Z,11.53
2022-08-28T02:01:36.087Z,11.63
2022-08-28T02:04:07.276Z,11.62
2022-08-28T02:06:38.306Z,11.69
2022-08-28T02:09:14.229Z,11.49
2022-08-28T02:11:42.036Z,11.33
2022-08-28T02:14:12.448Z,11.32
2022-08-28T02:16:41.983Z,11.39
2022-08-28T02:19:11.995Z,11.32
2022-08-28T02:21:39.425Z,11.32
2022-08-28T02:24:08.121Z,11.34
2022-08-28T02:26:39.590Z,11.37
2022-08-28T02:29:08.389Z,11.35
2022-08-28T02:31:35.751Z,11.28
2022-08-28T02:34:05.837Z,11.30
2022-08-28T02:36:33.589Z,11.31
2022-08-28T02:39:02.752Z,11.26
2022-08-28T02:41:35.792Z,11.23
2022-08-28T02:44:03.595Z,11.18
2022-08-28T02:46:32.504Z,11.30
2022-08-28T02:48:59.812Z,11.33
2022-08-28T02:51:30.687Z,11.18
2022-08-28T02:53:59.440Z,11.21
2022-08-28T02:56:29.862Z,11.24
2022-08-28T02:59:00.367Z,11.24
2022-08-28T03:01:27.470Z,11.10
2022-08-28T03:03:55.241Z,11.19
2022-08-28T03:06:23.280Z,11.13
2022-08-28T03:08:58.359Z,11.22
2022-08-28T03:11:30.869Z,11.20
2022-08-28T03:14:00.560Z,11.32
2022-08-28T03:16:28.884Z,11.30
2022-08-28T03:18:56.292Z,11.34
2022-08-28T03:21:23.451Z,11.48
2022-08-28T03:23:50.484Z,11.49
2022-08-28T03:26:22.052Z,11.41
2022-08-28T03:28:51.813Z,11.44
2022-08-28T03:31:22.825Z,11.29
2022-08-28T03:33:51.044Z,11.38
2022-08-28T03:36:25.481Z,11.32
2022-08-28T03:39:02.594Z,11.31
2022-08-28T03:41:31.160Z,11.39
2022-08-28T03:44:00.153Z,11.31
2022-08-28T03:46:33.323Z,11.25
2022-08-28T03:49:05.052Z,11.31
2022-08-28T03:51:37.419Z,11.41
2022-08-28T03:54:05.747Z,11.23
2022-08-28T03:56:32.760Z,11.27
2022-08-28T03:59:02.867Z,11.29
2022-08-28T04:01:31.718Z,11.40
2022-08-28T04:03:59.256Z,11.43
2022-08-28T04:06:26.778Z,11.41
2022-08-28T04:08:59.912Z,11.49
2022-08-28T04:11:28.893Z,11.48
2022-08-28T04:13:56.385Z,11.50
2022-08-28T04:16:28.769Z,11.40
2022-08-28T04:19:00.063Z,11.41
2022-08-28T04:21:27.366Z,11.54
2022-08-28T04:23:59.225Z,11.54
2022-08-28T04:26:27.807Z,11.59
2022-08-28T04:28:56.429Z,11.51
2022-08-28T04:31:31.951Z,11.58
2022-08-28T04:34:05.439Z,11.76
2022-08-28T04:36:33.011Z,11.84
2022-08-28T04:39:02.423Z,11.86
2022-08-28T04:41:32.644Z,11.90
2022-08-28T04:44:02.725Z,11.92
2022-08-28T04:46:31.210Z,11.75
2022-08-28T04:49:02.700Z,11.71
2022-08-28T04:51:33.991Z,11.78
2022-08-28T04:54:03.407Z,11.88
2022-08-28T04:56:31.914Z,11.94
2022-08-28T04:59:04.147Z,12.01
2022-08-28T05:01:32.634Z,12.13
2022-08-28T05:04:01.987Z,12.16
2022-08-28T05:06:36.698Z,12.20
2022-08-28T05:09:05.771Z,12.23
2022-08-28T05:11:40.352Z,12.24
2022-08-28T05:14:11.562Z,12.27
2022-08-28T05:16:51.519Z,12.24
2022-08-28T05:19:28.089Z,12.29
2022-08-28T05:21:58.286Z,12.32
2022-08-28T05:24:25.945Z,12.48
2022-08-28T05:26:53.088Z,12.49
2022-08-28T05:29:24.405Z,12.53
2022-08-28T05:31:53.292Z,12.59
2022-08-28T05:34:21.953Z,12.57
2022-08-28T05:36:53.187Z,12.57
2022-08-28T05:39:25.013Z,12.60
2022-08-28T05:41:52.263Z,12.63
2022-08-28T05:44:22.062Z,12.65
2022-08-28T05:46:55.698Z,12.64
2022-08-28T05:49:30.652Z,12.68
2022-08-28T05:52:01.729Z,12.79
2022-08-28T05:54:38.189Z,12.78
2022-08-28T05:57:10.403Z,12.79
2022-08-28T05:59:37.316Z,12.78
2022-08-28T06:02:07.475Z,12.80
2022-08-28T06:04:34.923Z,12.92
2022-08-28T06:07:03.927Z,12.97
2022-08-28T06:09:33.795Z,13.05
2022-08-28T06:12:02.009Z,13.02
2022-08-28T06:14:29.789Z,13.10
2022-08-28T06:16:57.609Z,13.16
2022-08-28T06:19:28.897Z,13.21
2022-08-28T06:21:57.759Z,13.29
2022-08-28T06:24:38.951Z,13.34
2022-08-28T06:27:06.431Z,13.35
2022-08-28T06:29:35.775Z,13.39
2022-08-28T06:32:06.009Z,13.43
2022-08-28T06:37:09.361Z,13.63
2022-08-28T06:39:38.284Z,13.74
2022-08-28T06:42:09.129Z,13.86
2022-08-28T06:44:37.604Z,13.91
2022-08-28T06:47:04.925Z,13.99
2022-08-28T06:49:34.339Z,14.10
2022-08-28T06:52:02.972Z,14.18
2022-08-28T06:54:29.948Z,14.27
2022-08-28T06:56:59.402Z,14.40
2022-08-28T06:59:26.505Z,14.49
2022-08-28T07:01:53.539Z,14.60
2022-08-28T07:04:23.193Z,14.70
2022-08-28T07:06:54.911Z,14.79
2022-08-28T07:09:26.572Z,14.89
2022-08-28T07:11:53.681Z,15.00
2022-08-28T07:14:26.045Z,15.09
2022-08-28T07:16:56.337Z,15.17
2022-08-28T07:19:24.157Z,15.28
2022-08-28T07:21:53.577Z,15.37
2022-08-28T07:24:20.558Z,15.43
2022-08-28T07:26:47.988Z,15.49
2022-08-28T07:29:16.115Z,15.53
2022-08-28T07:31:50.440Z,15.63
2022-08-28T07:34:19.746Z,15.70
2022-08-28T07:36:47.077Z,15.77
2022-08-28T07:39:15.872Z,15.85
2022-08-28T07:41:43.247Z,15.93
2022-08-28T07:44:12.859Z,16.05
2022-08-28T07:46:40.885Z,16.19
2022-08-28T07:49:11.616Z,16.39
2022-08-28T07:51:41.802Z,16.62
2022-08-28T07:54:17.886Z,16.82
2022-08-28T07:56:46.489Z,16.97
2022-08-28T07:59:22.951Z,17.11
2022-08-28T08:01:51.452Z,17.29
2022-08-28T08:04:21.522Z,17.38
2022-08-28T08:06:55.746Z,17.42
2022-08-28T08:09:25.868Z,17.42
2022-08-28T08:11:52.774Z,17.32
2022-08-28T08:14:21.172Z,17.16
2022-08-28T08:16:48.725Z,17.19
2022-08-28T08:19:16.818Z,17.19
2022-08-28T08:21:53.207Z,17.19
2022-08-28T08:24:26.560Z,17.25
2022-08-28T08:26:59.328Z,17.28
2022-08-28T08:29:36.976Z,17.35
2022-08-28T08:32:07.993Z,17.36
2022-08-28T08:34:39.588Z,17.42
2022-08-28T08:37:08.190Z,17.37
2022-08-28T08:39:37.919Z,17.38
2022-08-28T08:42:10.645Z,17.34
2022-08-28T08:44:41.329Z,17.38
2022-08-28T08:47:15.160Z,17.42
2022-08-28T08:49:48.375Z,17.45
2022-08-28T08:52:48.000Z,17.50
2022-08-28T08:55:26.865Z,17.57
2022-08-28T08:58:02.884Z,17.64
2022-08-28T09:00:35.044Z,17.71
2022-08-28T09:03:07.299Z,17.75
2022-08-28T09:05:47.083Z,17.81
2022-08-28T09:08:30.103Z,17.82
2022-08-28T09:11:04.638Z,17.79
2022-08-28T09:13:43.319Z,17.78
2022-08-28T09:16:24.521Z,17.79
2022-08-28T09:18:54.841Z,17.81
2022-08-28T09:21:30.185Z,17.84
2022-08-28T09:24:11.890Z,17.89
2022-08-28T09:26:41.329Z,17.91
2022-08-28T09:29:25.340Z,17.98
2022-08-28T09:31:55.715Z,17.88
2022-08-28T09:34:33.371Z,17.97
2022-08-28T09:37:03.257Z,18.07
2022-08-28T09:39:33.561Z,18.13
2022-08-28T09:42:18.486Z,18.25
2022-08-28T09:44:54.784Z,18.34
2022-08-28T09:47:52.155Z,18.48
2022-08-28T09:50:32.861Z,18.60
2022-08-28T09:53:17.264Z,18.67
2022-08-28T09:55:55.698Z,18.80
2022-08-28T09:58:25.814Z,18.84
2022-08-28T10:01:00.730Z,18.90
2022-08-28T10:03:33.183Z,18.97
2022-08-28T10:06:07.765Z,19.02
2022-08-28T10:08:59.246Z,19.07
2022-08-28T10:11:38.410Z,19.07
2022-08-28T10:14:22.654Z,19.17
2022-08-28T10:17:04.456Z,19.29
2022-08-28T10:19:42.866Z,19.57
2022-08-28T10:22:21.190Z,19.72
2022-08-28T10:25:04.460Z,19.86
2022-08-28T10:27:47.516Z,20.31
2022-08-28T10:30:17.225Z,20.49
2022-08-28T10:33:08.054Z,20.68
2022-08-28T10:35:44.228Z,21.05
2022-08-28T10:38:15.673Z,21.45
2022-08-28T10:40:53.707Z,21.80
2022-08-28T10:43:31.544Z,22.29
2022-08-28T10:46:09.759Z,22.69
2022-08-28T10:48:44.621Z,23.01
2022-08-28T10:51:20.611Z,23.35
2022-08-28T10:54:07.670Z,23.68
2022-08-28T10:56:42.172Z,23.92
2022-08-28T10:59:10.518Z,24.17
2022-08-28T11:01:43.654Z,24.47
2022-08-28T11:04:24.873Z,24.67
2022-08-28T11:06:58.301Z,24.79
2022-08-28T11:09:33.442Z,25.04
2022-08-28T11:12:03.942Z,25.05
2022-08-28T11:14:48.120Z,25.01
2022-08-28T11:17:30.414Z,25.07
2022-08-28T11:20:09.394Z,25.26
2022-08-28T11:22:42.411Z,25.25
2022-08-28T11:25:27.656Z,25.18
2022-08-28T11:31:29.733Z,25.33
2022-08-28T11:33:57.735Z,25.12
2022-08-28T11:36:56.606Z,25.26
2022-08-28T11:39:23.618Z,24.65
2022-08-28T11:42:26.522Z,24.97
2022-08-28T11:44:53.910Z,25.35
2022-08-28T11:47:44.421Z,25.76
2022-08-28T11:50:17.174Z,25.75
2022-08-28T11:53:02.055Z,25.76
2022-08-28T11:55:46.690Z,25.78
2022-08-28T11:58:22.584Z,25.74
2022-08-28T12:00:54.172Z,25.57
2022-08-28T12:03:38.876Z,25.35
2022-08-28T12:06:07.665Z,25.06
2022-08-28T12:09:03.586Z,24.77
2022-08-28T12:12:02.097Z,24.68
2022-08-28T12:15:05.312Z,24.98
2022-08-28T12:17:53.717Z,25.16
2022-08-28T12:20:28.243Z,25.39
2022-08-28T12:22:59.556Z,25.09
2022-08-28T12:25:33.056Z,25.03
2022-08-28T12:28:16.384Z,24.78
2022-08-28T12:30:52.754Z,24.53
2022-08-28T12:33:26.470Z,24.29
2022-08-28T12:36:00.607Z,24.28
2022-08-28T12:38:31.442Z,24.24
2022-08-28T12:40:58.862Z,24.19
2022-08-28T12:43:34.527Z,23.95
2022-08-28T12:46:04.067Z,23.96
2022-08-28T12:48:33.433Z,23.88
2022-08-28T12:51:05.691Z,23.84
2022-08-28T12:53:44.407Z,23.98
2022-08-28T12:56:17.095Z,23.93
2022-08-28T12:58:46.331Z,23.83
2022-08-28T13:01:17.194Z,24.13
2022-08-28T13:03:49.970Z,24.31
2022-08-28T13:06:28.926Z,24.41
2022-08-28T13:09:01.562Z,24.48
2022-08-28T13:11:33.516Z,24.64
2022-08-28T13:14:00.947Z,24.82
2022-08-28T13:16:38.163Z,25.03
2022-08-28T13:19:25.542Z,24.99
2022-08-28T13:22:01.380Z,24.43
2022-08-28T13:24:47.596Z,24.80
2022-08-28T13:27:23.630Z,24.92
2022-08-28T13:29:59.866Z,24.75
2022-08-28T13:32:34.088Z,25.00
2022-08-28T13:35:25.668Z,25.14
2022-08-28T13:38:01.874Z,25.40
2022-08-28T13:41:00.822Z,25.57
2022-08-28T13:43:30.648Z,25.54
2022-08-28T13:45:59.949Z,25.60
2022-08-28T13:48:27.876Z,25.63
2022-08-28T13:51:05.029Z,25.74
2022-08-28T13:53:37.574Z,25.70
2022-08-28T13:56:07.636Z,25.65
2022-08-28T13:58:35.671Z,25.17
2022-08-28T14:01:03.233Z,25.39
2022-08-28T14:03:30.987Z,25.13
2022-08-28T14:05:59.587Z,25.10
2022-08-28T14:08:29.935Z,25.29
2022-08-28T14:10:58.795Z,25.26
2022-08-28T14:13:25.677Z,25.08
2022-08-28T14:15:54.597Z,24.28
2022-08-28T14:18:26.917Z,24.50
2022-08-28T14:20:54.104Z,24.07
2022-08-28T14:23:22.136Z,23.66
2022-08-28T14:25:51.038Z,23.60
2022-08-28T14:28:20.646Z,23.36
2022-08-28T14:30:52.139Z,22.69
2022-08-28T14:33:31.160Z,22.38
2022-08-28T14:36:08.365Z,22.29
2022-08-28T14:38:37.705Z,22.45
2022-08-28T14:41:08.379Z,22.48
2022-08-28T14:43:37.251Z,22.46
2022-08-28T14:46:11.564Z,21.99
2022-08-28T14:48:41.375Z,22.22
2022-08-28T14:51:08.881Z,22.18
2022-08-28T14:53:36.461Z,22.27
2022-08-28T14:56:06.217Z,22.30
2022-08-28T14:58:34.207Z,22.34
2022-08-28T15:01:12.601Z,22.33
2022-08-28T15:03:39.587Z,22.32
2022-08-28T15:06:09.301Z,22.33
2022-08-28T15:08:39.387Z,22.24
2022-08-28T15:11:08.671Z,22.17
2022-08-28T15:13:37.011Z,22.14
2022-08-28T15:16:15.937Z,22.15
2022-08-28T15:18:44.285Z,22.06
2022-08-28T15:21:15.333Z,21.99
2022-08-28T15:23:42.969Z,21.92
2022-08-28T15:26:15.573Z,21.77
2022-08-28T15:28:43.836Z,21.37
2022-08-28T15:31:19.243Z,21.30
2022-08-28T15:33:47.559Z,21.13
2022-08-28T15:36:15.340Z,20.71
2022-08-28T15:38:43.191Z,20.72
2022-08-28T15:41:11.621Z,20.57
2022-08-28T15:43:39.360Z,20.44
2022-08-28T15:46:11.349Z,20.44
2022-08-28T15:48:43.299Z,20.46
2022-08-28T15:51:11.370Z,20.42
2022-08-28T15:53:39.896Z,20.45
2022-08-28T15:56:09.097Z,20.49
2022-08-28T15:58:37.186Z,20.46
2022-08-28T16:01:07.159Z,20.53
2022-08-28T16:03:35.453Z,20.51
2022-08-28T16:06:20.460Z,20.56
2022-08-28T16:08:53.388Z,20.51
2022-08-28T16:11:22.744Z,20.53
2022-08-28T16:13:54.157Z,20.63
2022-08-28T16:16:21.558Z,20.70
2022-08-28T16:18:52.256Z,20.62
2022-08-28T16:21:23.972Z,20.48
2022-08-28T16:23:56.019Z,20.34
2022-08-28T16:26:24.158Z,20.32
2022-08-28T16:28:52.137Z,20.36
2022-08-28T16:31:20.555Z,20.40
2022-08-28T16:33:49.759Z,20.40
2022-08-28T16:36:23.659Z,20.32
2022-08-28T16:38:52.949Z,20.26
2022-08-28T16:41:33.243Z,20.20
2022-08-28T16:44:00.296Z,19.84
2022-08-28T16:46:30.184Z,19.76
2022-08-28T16:48:58.165Z,19.71
2022-08-28T16:51:27.794Z,19.65
2022-08-28T16:53:56.879Z,19.60
2022-08-28T16:56:25.041Z,19.48
2022-08-28T16:58:54.733Z,19.33
2022-08-28T17:01:23.952Z,19.25
2022-08-28T17:03:53.152Z,19.10
2022-08-28T17:06:23.468Z,18.95
2022-08-28T17:08:55.887Z,19.07
2022-08-28T17:11:27.979Z,18.83
2022-08-28T17:13:56.070Z,18.68
2022-08-28T17:16:25.168Z,18.80
2022-08-28T17:18:55.491Z,18.78
2022-08-28T17:21:22.498Z,18.46
2022-08-28T17:23:50.120Z,18.32
2022-08-28T17:26:22.166Z,18.13
2022-08-28T17:28:52.002Z,18.01
2022-08-28T17:31:20.287Z,18.03
2022-08-28T17:33:47.604Z,17.94
2022-08-28T17:36:32.627Z,17.87
2022-08-28T17:39:02.128Z,17.77
2022-08-28T17:41:37.662Z,17.68
2022-08-28T17:44:06.495Z,17.64
2022-08-28T17:46:38.044Z,17.59
2022-08-28T17:49:06.738Z,17.53
2022-08-28T17:51:43.222Z,17.40
2022-08-28T17:54:12.131Z,17.39
2022-08-28T17:56:42.951Z,17.38
2022-08-28T17:59:12.381Z,17.27
2022-08-28T18:01:40.250Z,17.21
2022-08-28T18:04:09.361Z,17.40
2022-08-28T18:06:38.904Z,17.38
2022-08-28T18:09:08.639Z,17.24
2022-08-28T18:11:36.529Z,17.23
2022-08-28T18:14:03.740Z,17.08
2022-08-28T18:16:36.237Z,16.99
2022-08-28T18:19:05.689Z,16.67
2022-08-28T18:21:34.836Z,16.63
2022-08-28T18:24:02.059Z,16.60
2022-08-28T18:26:37.197Z,16.36
2022-08-28T18:29:04.067Z,16.37
2022-08-28T18:31:34.576Z,16.30
2022-08-28T18:34:03.552Z,16.33
2022-08-28T18:36:31.907Z,16.30
2022-08-28T18:38:59.210Z,16.22
2022-08-28T18:41:41.630Z,16.20
2022-08-28T18:44:12.846Z,16.12
2022-08-28T18:46:47.870Z,16.19
2022-08-28T18:49:16.603Z,16.13
2022-08-28T18:51:50.029Z,16.09
2022-08-28T18:54:21.461Z,16.06
2022-08-28T18:56:51.568Z,16.12
2022-08-28T18:59:19.422Z,16.03
2022-08-28T19:01:48.412Z,16.05
2022-08-28T19:04:18.382Z,16.01
2022-08-28T19:06:46.444Z,16.00
2022-08-28T19:11:57.604Z,15.91
2022-08-28T19:14:25.371Z,15.78
2022-08-28T19:16:53.761Z,15.76
2022-08-28T19:19:27.809Z,15.69
2022-08-28T19:21:57.288Z,15.76
2022-08-28T19:24:32.398Z,15.87
2022-08-28T19:27:00.969Z,15.74
2022-08-28T19:29:29.154Z,15.70
2022-08-28T19:31:56.559Z,15.79
2022-08-28T19:34:25.315Z,15.61
2022-08-28T19:36:53.917Z,15.69
2022-08-28T19:39:21.167Z,15.50
2022-08-28T19:41:51.284Z,15.44
2022-08-28T19:44:23.441Z,15.45
2022-08-28T19:46:52.041Z,15.30
2022-08-28T19:49:21.507Z,15.36
2022-08-28T19:52:04.060Z,15.49
2022-08-28T19:54:32.188Z,15.47
2022-08-28T19:56:59.925Z,15.56
2022-08-28T19:59:27.704Z,15.59
2022-08-28T20:01:57.282Z,15.61
2022-08-28T20:04:24.894Z,15.55
2022-08-28T20:07:10.098Z,15.54
2022-08-28T20:09:37.754Z,15.54
2022-08-28T20:14:51.483Z,15.46
2022-08-28T20:17:21.237Z,15.40
2022-08-28T20:20:07.207Z,15.47
2022-08-28T20:22:49.135Z,15.47
2022-08-28T20:25:21.789Z,15.45
2022-08-28T20:27:56.439Z,15.40
2022-08-28T20:30:36.095Z,15.33
2022-08-28T20:33:05.545Z,15.35
2022-08-28T20:35:32.914Z,15.49
2022-08-28T20:38:22.862Z,15.53
2022-08-28T20:40:53.677Z,15.38
2022-08-28T20:43:21.780Z,15.43
2022-08-28T20:45:51.284Z,15.35
2022-08-28T20:48:23.144Z,15.23
2022-08-28T20:50:56.193Z,15.19
2022-08-28T20:53:37.219Z,15.20
2022-08-28T20:56:10.605Z,15.04
2022-08-28T20:58:39.657Z,15.11
2022-08-28T21:01:08.919Z,15.02
2022-08-28T21:03:40.639Z,14.99
2022-08-28T21:06:16.161Z,14.95
2022-08-28T21:08:47.536Z,14.95
2022-08-28T21:11:22.718Z,14.92
2022-08-28T21:14:13.138Z,14.93
2022-08-28T21:19:29.238Z,15.01
2022-08-28T21:22:03.695Z,14.87
2022-08-28T21:24:37.211Z,14.83
2022-08-28T21:27:16.507Z,14.93
2022-08-28T21:29:49.361Z,15.03
2022-08-28T21:32:29.419Z,15.05
2022-08-28T21:34:56.787Z,14.98
2022-08-28T21:37:29.107Z,14.88
2022-08-28T21:40:01.937Z,15.06
2022-08-28T21:42:35.277Z,15.12
2022-08-28T21:45:11.211Z,15.13
2022-08-28T21:47:39.766Z,15.15
2022-08-28T21:50:28.731Z,15.13
2022-08-28T21:53:04.477Z,15.18
2022-08-28T21:55:36.173Z,15.20
2022-08-28T21:58:07.835Z,15.12
2022-08-28T22:00:38.261Z,15.15
2022-08-28T22:03:10.270Z,15.13
2022-08-28T22:05:37.247Z,15.15
2022-08-28T22:08:04.533Z,15.21
2022-08-28T22:10:39.947Z,15.20
2022-08-28T22:13:09.986Z,15.17
2022-08-28T22:15:37.475Z,15.22
2022-08-28T22:18:05.659Z,15.26
2022-08-28T22:20:34.906Z,15.21
2022-08-28T22:23:02.329Z,15.10
2022-08-28T22:25:31.444Z,15.07
2022-08-28T22:28:02.557Z,15.06
2022-08-28T22:30:31.404Z,15.09
2022-08-28T22:33:01.921Z,14.99
2022-08-28T22:38:15.634Z,15.02
2022-08-28T22:40:43.990Z,15.07
2022-08-28T22:43:21.121Z,15.05
2022-08-28T22:45:48.551Z,14.95
2022-08-28T22:48:19.043Z,14.83
2022-08-28T22:50:48.448Z,14.93
2022-08-28T22:53:18.136Z,14.87
2022-08-28T22:55:45.607Z,14.93
2022-08-28T22:58:15.390Z,14.95
2022-08-28T23:03:34.448Z,14.98
2022-08-28T23:06:02.593Z,15.05
2022-08-28T23:08:33.913Z,14.99
2022-08-28T23:11:05.732Z,14.94
2022-08-28T23:13:34.439Z,14.97
2022-08-28T23:16:04.200Z,14.88
2022-08-28T23:19:06.446Z,14.80
2022-08-28T23:21:28.431Z,14.80
2022-08-28T23:23:56.808Z,14.76
2022-08-28T23:26:25.029Z,14.71
2022-08-28T23:28:54.388Z,14.76
2022-08-28T23:31:21.896Z,14.75
2022-08-28T23:33:54.541Z,14.77
2022-08-28T23:36:29.456Z,14.84
2022-08-28T23:38:58.175Z,14.88
2022-08-28T23:41:34.653Z,14.73
2022-08-28T23:44:08.246Z,14.58
2022-08-28T23:46:41.387Z,14.61
2022-08-28T23:49:21.591Z,14.58
2022-08-28T23:51:57.895Z,14.50
2022-08-28T23:54:26.769Z,14.44
2022-08-28T23:57:00.332Z,14.38
2022-08-28T23:59:29.556Z,14.30
